Terminal Aerodrome Forecast
Issued by NWS

Home | Current Version | Previous Version | Graphics & Text | Print | Product List | Glossary On
Versions: 1 2 3 4 5 6 7 8 9 10 11 12 13 14 15 16
000
FTUS43 KGRB 260500
TAFATW
TAF
KATW 260520Z 2606/2706 26004KT P6SM SCT120
     FM260800 29007KT P6SM BKN100
     FM261600 28009G14KT P6SM SCT250
     FM270200 33003KT P6SM BKN150=

USA.gov is the U.S. government's official web portal to all federal, state and local government web resources and services.